createdAt,value
2017-12-19T00:01:45.652Z,8.25
2017-12-19T00:04:13.181Z,6.90
2017-12-19T00:06:40.764Z,8.70
2017-12-19T00:09:08.334Z,8.10
2017-12-19T00:11:35.914Z,7.30
2017-12-19T00:14:03.448Z,7.70
2017-12-19T00:16:31.032Z,7.95
2017-12-19T00:18:58.568Z,7.70
2017-12-19T00:21:26.136Z,7.00
2017-12-19T00:23:53.663Z,7.95
2017-12-19T00:26:21.267Z,8.05
2017-12-19T00:28:48.797Z,6.55
2017-12-19T00:31:16.328Z,7.72
2017-12-19T00:33:44.661Z,7.15
2017-12-19T00:36:12.236Z,7.82
2017-12-19T00:38:39.768Z,7.62
2017-12-19T00:41:07.336Z,8.00
2017-12-19T00:43:34.868Z,7.75
2017-12-19T00:46:02.440Z,9.05
2017-12-19T00:48:29.973Z,7.62
2017-12-19T00:50:57.548Z,7.32
2017-12-19T00:53:25.080Z,6.80
2017-12-19T00:55:53.424Z,7.90
2017-12-19T00:58:20.955Z,8.70
2017-12-19T01:00:48.520Z,7.75
2017-12-19T01:03:16.051Z,8.82
2017-12-19T01:05:43.623Z,7.60
2017-12-19T01:08:11.187Z,7.80
2017-12-19T01:10:38.719Z,7.93
2017-12-19T01:13:06.294Z,8.48
2017-12-19T01:15:33.869Z,8.00
2017-12-19T01:18:01.397Z,7.70
2017-12-19T01:20:28.977Z,8.25
2017-12-19T01:22:56.743Z,8.02
2017-12-19T01:25:24.302Z,7.35
2017-12-19T01:27:51.882Z,7.82
2017-12-19T01:30:19.411Z,8.32
2017-12-19T01:32:46.984Z,8.07
2017-12-19T01:35:14.511Z,8.63
2017-12-19T01:37:42.847Z,8.25
2017-12-19T01:40:10.384Z,7.28
2017-12-19T01:42:37.957Z,7.95
2017-12-19T01:45:05.486Z,7.57
2017-12-19T01:47:33.055Z,8.10
2017-12-19T01:50:00.584Z,7.53
2017-12-19T01:52:28.924Z,7.60
2017-12-19T01:54:56.453Z,6.55
2017-12-19T01:57:24.027Z,7.35
2017-12-19T01:59:51.556Z,8.38
2017-12-19T02:02:19.129Z,8.10
2017-12-19T02:04:46.655Z,7.93
2017-12-19T02:07:14.996Z,7.60
2017-12-19T02:09:42.525Z,8.45
2017-12-19T02:12:10.100Z,7.57
2017-12-19T02:14:37.628Z,7.07
2017-12-19T02:17:05.198Z,7.90
2017-12-19T02:19:32.722Z,8.60
2017-12-19T02:22:01.060Z,8.18
2017-12-19T02:24:28.623Z,7.45
2017-12-19T02:26:56.270Z,8.10
2017-12-19T02:29:23.805Z,7.57
2017-12-19T02:31:51.396Z,8.30
2017-12-19T02:34:18.921Z,8.07
2017-12-19T02:36:46.451Z,7.82
2017-12-19T02:39:14.027Z,7.68
2017-12-19T02:41:42.325Z,7.90
2017-12-19T02:44:09.900Z,8.90
2017-12-19T02:46:37.423Z,8.52
2017-12-19T02:49:05.763Z,8.88
2017-12-19T02:51:33.289Z,9.20
2017-12-19T02:54:00.870Z,9.98
2017-12-19T02:56:28.401Z,8.40
2017-12-19T02:58:55.976Z,8.85
2017-12-19T03:01:23.506Z,9.40
2017-12-19T03:03:51.079Z,9.32
2017-12-19T03:06:18.612Z,8.45
2017-12-19T03:08:46.943Z,8.40
2017-12-19T03:11:14.474Z,8.10
2017-12-19T03:13:42.050Z,7.90
2017-12-19T03:16:09.579Z,8.48
2017-12-19T03:18:37.165Z,8.30
2017-12-19T03:21:04.741Z,7.90
2017-12-19T03:23:32.301Z,8.60
2017-12-19T03:25:59.832Z,7.82
2017-12-19T03:28:27.364Z,7.93
2017-12-19T03:30:55.698Z,7.82
2017-12-19T03:33:23.237Z,8.05
2017-12-19T03:35:50.812Z,8.20
2017-12-19T03:38:18.339Z,7.68
2017-12-19T03:40:45.908Z,8.02
2017-12-19T03:43:13.440Z,8.50
2017-12-19T03:45:41.779Z,7.35
2017-12-19T03:48:09.314Z,7.55
2017-12-19T03:50:36.889Z,7.97
2017-12-19T03:53:04.477Z,7.93
2017-12-19T03:55:32.024Z,8.60
2017-12-19T03:57:59.563Z,9.05
2017-12-19T04:00:27.141Z,8.32
2017-12-19T04:02:54.673Z,7.68
2017-12-19T04:05:22.243Z,7.90
2017-12-19T04:07:49.775Z,9.18
2017-12-19T04:10:17.343Z,7.80
2017-12-19T04:12:44.872Z,8.60
2017-12-19T04:15:13.212Z,9.43
2017-12-19T04:17:40.745Z,9.07
2017-12-19T04:20:08.406Z,8.10
2017-12-19T04:22:35.936Z,8.30
2017-12-19T04:25:04.280Z,8.75
2017-12-19T04:27:31.806Z,8.35
2017-12-19T04:29:59.378Z,8.43
2017-12-19T04:32:26.909Z,9.43
2017-12-19T04:34:54.509Z,7.37
2017-12-19T04:37:22.042Z,8.80
2017-12-19T04:39:49.612Z,8.60
2017-12-19T04:42:17.138Z,7.93
2017-12-19T04:44:44.714Z,8.55
2017-12-19T04:47:12.244Z,9.48
2017-12-19T04:49:40.591Z,8.50
2017-12-19T04:52:08.120Z,7.97
2017-12-19T04:54:35.697Z,8.95
2017-12-19T04:57:03.267Z,8.85
2017-12-19T04:59:30.834Z,8.45
2017-12-19T05:01:58.359Z,9.73
2017-12-19T05:04:25.932Z,8.90
2017-12-19T05:06:53.575Z,7.70
2017-12-19T05:09:21.149Z,7.80
2017-12-19T05:11:48.693Z,9.60
2017-12-19T05:14:16.264Z,8.60
2017-12-19T05:16:43.791Z,9.07
2017-12-19T05:19:11.371Z,8.80
2017-12-19T05:21:38.900Z,8.38
2017-12-19T05:24:07.191Z,9.20
2017-12-19T05:26:34.759Z,9.05
2017-12-19T05:29:02.288Z,8.57
2017-12-19T05:31:30.624Z,8.90
2017-12-19T05:33:58.266Z,9.32
2017-12-19T05:36:25.840Z,8.48
2017-12-19T05:38:53.369Z,8.40
2017-12-19T05:41:20.948Z,8.50
2017-12-19T05:43:48.503Z,9.25
2017-12-19T05:46:16.077Z,8.60
2017-12-19T05:48:43.606Z,9.80
2017-12-19T05:51:11.185Z,9.25
2017-12-19T05:53:38.721Z,8.35
2017-12-19T05:56:06.286Z,8.93
2017-12-19T05:58:33.815Z,8.68
2017-12-19T06:01:01.389Z,8.88
2017-12-19T06:03:29.689Z,9.20
2017-12-19T06:05:57.258Z,9.50
2017-12-19T06:08:24.793Z,8.45
2017-12-19T06:10:52.371Z,9.73
2017-12-19T06:13:19.898Z,9.13
2017-12-19T06:15:48.226Z,9.35
2017-12-19T06:18:15.757Z,8.80
2017-12-19T06:20:43.331Z,9.43
2017-12-19T06:23:10.861Z,9.32
2017-12-19T06:25:39.195Z,10.13
2017-12-19T06:28:06.732Z,8.88
2017-12-19T06:30:34.308Z,9.30
2017-12-19T06:33:01.844Z,9.52
2017-12-19T06:35:29.413Z,8.90
2017-12-19T06:37:56.944Z,9.38
2017-12-19T06:40:24.516Z,9.80
2017-12-19T06:42:52.053Z,9.55
2017-12-19T06:45:20.405Z,8.73
2017-12-19T06:47:47.935Z,9.20
2017-12-19T06:50:15.480Z,10.38
2017-12-19T06:52:43.046Z,9.95
2017-12-19T06:55:10.599Z,9.48
2017-12-19T06:57:38.172Z,9.73
2017-12-19T07:00:05.706Z,9.77
2017-12-19T07:02:33.285Z,9.48
2017-12-19T07:05:00.869Z,8.55
2017-12-19T07:07:28.425Z,8.75
2017-12-19T07:09:55.964Z,8.63
2017-12-19T07:12:23.543Z,8.68
2017-12-19T07:14:51.065Z,8.68
2017-12-19T07:17:18.650Z,9.35
2017-12-19T07:19:46.190Z,8.90
2017-12-19T07:22:14.527Z,10.15
2017-12-19T07:24:42.134Z,9.00
2017-12-19T07:27:09.709Z,9.75
2017-12-19T07:29:37.237Z,9.52
2017-12-19T07:32:04.808Z,8.70
2017-12-19T07:34:32.335Z,9.25
2017-12-19T07:37:00.676Z,9.15
2017-12-19T07:39:28.214Z,10.43
2017-12-19T07:41:55.877Z,10.20
2017-12-19T07:44:23.413Z,9.68
2017-12-19T07:46:50.983Z,9.30
2017-12-19T07:49:18.514Z,9.43
2017-12-19T07:51:46.848Z,9.60
2017-12-19T07:54:14.391Z,9.10
2017-12-19T07:56:41.963Z,9.00
2017-12-19T07:59:09.489Z,9.65
2017-12-19T08:01:37.066Z,9.13
2017-12-19T08:04:04.598Z,10.80
2017-12-19T08:06:32.175Z,9.48
2017-12-19T08:08:59.750Z,9.23
2017-12-19T08:11:27.296Z,10.23
2017-12-19T08:13:54.888Z,10.73
2017-12-19T08:16:22.428Z,10.60
2017-12-19T08:18:50.017Z,10.27
2017-12-19T08:21:17.560Z,9.82
2017-12-19T08:23:45.128Z,10.77
2017-12-19T08:26:12.664Z,12.00
2017-12-19T08:28:40.240Z,12.30
2017-12-19T08:31:07.769Z,13.05
2017-12-19T08:33:35.356Z,12.65
2017-12-19T08:36:02.892Z,13.32
2017-12-19T08:38:30.432Z,14.60
2017-12-19T08:40:58.018Z,12.50
2017-12-19T08:43:25.605Z,13.20
2017-12-19T08:45:53.140Z,13.82
2017-12-19T08:48:20.676Z,14.52
2017-12-19T08:50:48.257Z,13.73
2017-12-19T08:53:15.848Z,13.85
2017-12-19T08:55:43.379Z,13.60
2017-12-19T08:58:10.917Z,13.60
2017-12-19T09:00:38.497Z,13.38
2017-12-19T09:03:06.072Z,14.80
2017-12-19T09:05:33.601Z,13.88
2017-12-19T09:08:01.184Z,14.35
2017-12-19T09:10:28.712Z,15.95
2017-12-19T09:12:56.293Z,15.30
2017-12-19T09:15:23.829Z,15.75
2017-12-19T09:17:51.405Z,15.40
2017-12-19T09:20:18.941Z,15.13
2017-12-19T09:22:47.349Z,17.35
2017-12-19T09:25:14.880Z,16.42
2017-12-19T09:27:43.180Z,17.33
2017-12-19T09:30:10.764Z,16.95
2017-12-19T09:32:38.346Z,18.08
2017-12-19T09:35:05.883Z,17.25
2017-12-19T09:37:33.465Z,20.70
2017-12-19T09:40:01.000Z,19.50
2017-12-19T09:42:28.587Z,18.20
2017-12-19T09:44:56.205Z,19.20
2017-12-19T09:47:23.775Z,18.95
2017-12-19T09:49:51.313Z,19.02
2017-12-19T09:52:18.895Z,19.40
2017-12-19T09:54:46.427Z,20.80
2017-12-19T09:57:14.002Z,20.33
2017-12-19T09:59:41.534Z,20.20
2017-12-19T10:02:09.838Z,20.25
2017-12-19T10:04:37.423Z,19.17
2017-12-19T10:07:05.008Z,20.70
2017-12-19T10:09:32.586Z,19.05
2017-12-19T10:12:00.895Z,20.27
2017-12-19T10:14:28.468Z,18.95
2017-12-19T10:16:56.120Z,18.25
2017-12-19T10:19:23.655Z,20.35
2017-12-19T10:21:51.232Z,20.75
2017-12-19T10:24:18.764Z,20.65
2017-12-19T10:26:47.116Z,20.77
2017-12-19T10:29:14.682Z,22.55
2017-12-19T10:31:42.257Z,21.20
2017-12-19T10:34:10.552Z,19.10
2017-12-19T10:36:38.136Z,18.48
2017-12-19T10:39:05.671Z,20.08
2017-12-19T10:41:33.263Z,18.17
2017-12-19T10:44:00.827Z,19.70
2017-12-19T10:46:28.359Z,20.90
2017-12-19T10:48:56.031Z,19.75
2017-12-19T10:51:23.581Z,19.08
2017-12-19T10:53:51.156Z,20.25
2017-12-19T10:56:18.708Z,19.98
2017-12-19T10:58:46.283Z,18.80
2017-12-19T11:01:13.812Z,19.05
2017-12-19T11:03:41.385Z,19.35
2017-12-19T11:06:08.920Z,19.85
2017-12-19T11:08:37.257Z,18.50
2017-12-19T11:11:04.788Z,18.05
2017-12-19T11:13:32.364Z,19.60
2017-12-19T11:15:59.901Z,18.85
2017-12-19T11:18:27.481Z,18.90
2017-12-19T11:20:55.018Z,20.08
2017-12-19T11:23:22.598Z,17.55
2017-12-19T11:25:50.128Z,18.83
2017-12-19T11:28:17.726Z,19.98
2017-12-19T11:30:45.259Z,20.73
2017-12-19T11:33:12.797Z,19.25
2017-12-19T11:35:40.376Z,19.27
2017-12-19T11:38:07.902Z,19.73
2017-12-19T11:40:36.242Z,18.70
2017-12-19T11:43:03.824Z,18.80
2017-12-19T11:45:31.356Z,20.50
2017-12-19T11:47:58.947Z,19.37
2017-12-19T11:50:26.484Z,19.55
2017-12-19T11:52:54.020Z,20.92
2017-12-19T11:55:21.596Z,20.73
2017-12-19T11:57:49.131Z,22.00
2017-12-19T12:00:16.714Z,20.08
2017-12-19T12:02:44.253Z,22.05
2017-12-19T12:05:11.832Z,21.37
2017-12-19T12:07:39.370Z,22.98
2017-12-19T12:10:06.943Z,21.55
2017-12-19T12:12:34.467Z,20.17
2017-12-19T12:15:02.049Z,20.95
2017-12-19T12:17:29.580Z,19.73
2017-12-19T12:19:57.920Z,20.25
2017-12-19T12:22:25.455Z,21.30
2017-12-19T12:24:53.027Z,19.65
2017-12-19T12:27:20.563Z,19.55
2017-12-19T12:29:48.139Z,16.25
2017-12-19T12:32:15.668Z,20.30
2017-12-19T12:34:43.346Z,20.40
2017-12-19T12:37:10.873Z,19.23
2017-12-19T12:39:39.213Z,18.23
2017-12-19T12:42:06.749Z,18.55
2017-12-19T12:44:34.332Z,13.82
2017-12-19T12:47:01.874Z,16.10
2017-12-19T12:49:29.451Z,15.85
2017-12-19T12:51:56.986Z,19.12
2017-12-19T12:54:24.561Z,17.65
2017-12-19T12:56:52.094Z,20.27
2017-12-19T12:59:19.668Z,17.80
2017-12-19T13:01:47.202Z,18.50
2017-12-19T13:04:14.781Z,17.02
2017-12-19T13:06:42.317Z,18.27
2017-12-19T13:09:10.001Z,15.80
2017-12-19T13:11:37.533Z,16.95
2017-12-19T13:14:05.111Z,16.80
2017-12-19T13:16:32.648Z,17.30
2017-12-19T13:19:00.997Z,19.98
2017-12-19T13:21:28.579Z,17.10
2017-12-19T13:23:56.156Z,16.00
2017-12-19T13:26:23.687Z,16.62
2017-12-19T13:28:51.987Z,15.65
2017-12-19T13:31:19.571Z,17.17
2017-12-19T13:33:47.116Z,15.55
2017-12-19T13:36:14.702Z,15.82
2017-12-19T13:38:42.243Z,15.45
2017-12-19T13:41:09.914Z,15.27
2017-12-19T13:43:37.458Z,14.20
2017-12-19T13:46:05.045Z,13.80
2017-12-19T13:48:32.696Z,16.05
2017-12-19T13:51:00.280Z,15.80
2017-12-19T13:53:27.819Z,15.57
2017-12-19T13:55:55.405Z,16.45
2017-12-19T13:58:23.036Z,17.17
2017-12-19T14:00:50.615Z,16.35
2017-12-19T14:03:18.185Z,16.92
2017-12-19T14:05:45.774Z,17.62
2017-12-19T14:08:14.079Z,19.80
2017-12-19T14:10:41.668Z,16.42
2017-12-19T14:13:09.226Z,19.42
2017-12-19T14:15:36.818Z,16.05
2017-12-19T14:18:04.364Z,18.17
2017-12-19T14:20:31.957Z,17.60
2017-12-19T14:23:00.264Z,15.88
2017-12-19T14:25:27.844Z,18.55
2017-12-19T14:27:55.389Z,18.08
2017-12-19T14:30:22.980Z,19.02
2017-12-19T14:32:50.567Z,18.92
2017-12-19T14:35:18.872Z,19.73
2017-12-19T14:37:46.417Z,19.42
2017-12-19T14:40:14.007Z,18.15
2017-12-19T14:42:41.604Z,20.70
2017-12-19T14:45:09.148Z,21.58
2017-12-19T14:47:36.688Z,22.45
2017-12-19T14:50:04.263Z,21.50
2017-12-19T14:52:31.808Z,22.10
2017-12-19T14:54:59.389Z,21.60
2017-12-19T14:57:26.937Z,18.85
2017-12-19T14:59:54.519Z,20.98
2017-12-19T15:02:22.060Z,20.27
2017-12-19T15:04:49.709Z,22.92
2017-12-19T15:07:17.247Z,20.90
2017-12-19T15:09:44.832Z,22.08
2017-12-19T15:12:12.381Z,21.10
2017-12-19T15:14:39.958Z,22.95
2017-12-19T15:17:07.544Z,17.80
2017-12-19T15:19:35.102Z,20.83
2017-12-19T15:22:02.645Z,21.55
2017-12-19T15:24:30.237Z,20.60
2017-12-19T15:26:58.543Z,20.92
2017-12-19T15:29:26.129Z,20.88
2017-12-19T15:31:53.678Z,22.25
2017-12-19T15:34:21.258Z,20.23
2017-12-19T15:36:48.801Z,20.55
2017-12-19T15:39:16.383Z,20.73
2017-12-19T15:41:43.933Z,21.37
2017-12-19T15:44:11.515Z,18.65
2017-12-19T15:46:39.054Z,21.50
2017-12-19T15:49:06.634Z,18.98
2017-12-19T15:51:34.178Z,20.75
2017-12-19T15:54:01.772Z,20.00
2017-12-19T15:56:29.378Z,21.05
2017-12-19T15:58:57.692Z,21.70
2017-12-19T16:01:25.224Z,21.73
2017-12-19T16:03:52.808Z,21.27
2017-12-19T16:06:20.350Z,21.08
2017-12-19T16:08:47.926Z,21.67
2017-12-19T16:11:15.472Z,20.60
2017-12-19T16:13:43.051Z,23.00
2017-12-19T16:16:10.597Z,22.58
2017-12-19T16:18:38.176Z,22.50
2017-12-19T16:21:05.720Z,22.80
2017-12-19T16:23:33.304Z,22.17
2017-12-19T16:26:00.847Z,23.62
2017-12-19T16:28:28.443Z,22.75
2017-12-19T16:30:56.744Z,21.80
2017-12-19T16:33:24.280Z,23.10
2017-12-19T16:35:52.620Z,22.37
2017-12-19T16:38:20.368Z,22.15
2017-12-19T16:40:47.956Z,22.30
2017-12-19T16:43:15.547Z,21.90
2017-12-19T16:45:43.088Z,22.65
2017-12-19T16:48:11.389Z,22.70
2017-12-19T16:50:38.973Z,22.75
2017-12-19T16:53:06.515Z,22.60
2017-12-19T16:55:34.102Z,22.35
2017-12-19T16:58:01.647Z,22.42
2017-12-19T17:00:29.232Z,21.50
2017-12-19T17:02:56.776Z,23.62
2017-12-19T17:05:24.365Z,22.87
2017-12-19T17:07:51.904Z,20.85
2017-12-19T17:10:19.481Z,21.62
2017-12-19T17:12:47.657Z,23.45
2017-12-19T17:15:15.237Z,21.85
2017-12-19T17:17:42.852Z,22.30
2017-12-19T17:20:10.425Z,23.17
2017-12-19T17:22:37.964Z,23.65
2017-12-19T17:25:05.544Z,22.73
2017-12-19T17:27:33.080Z,22.83
2017-12-19T17:30:00.661Z,22.13
2017-12-19T17:32:28.204Z,23.33
2017-12-19T17:34:55.785Z,22.40
2017-12-19T17:37:23.363Z,21.75
2017-12-19T17:39:51.155Z,23.50
2017-12-19T17:42:19.511Z,20.50
2017-12-19T17:44:47.098Z,21.92
2017-12-19T17:47:15.408Z,22.15
2017-12-19T17:49:42.993Z,22.10
2017-12-19T17:52:10.537Z,21.33
2017-12-19T17:54:38.118Z,22.02
2017-12-19T17:57:05.695Z,22.42
2017-12-19T17:59:33.272Z,22.33
2017-12-19T18:02:01.619Z,20.95
2017-12-19T18:04:29.196Z,21.48
2017-12-19T18:06:56.779Z,20.50
2017-12-19T18:09:24.364Z,22.52
2017-12-19T18:11:51.901Z,20.58
2017-12-19T18:14:19.484Z,20.75
2017-12-19T18:16:47.046Z,22.35
2017-12-19T18:19:14.686Z,20.60
2017-12-19T18:21:42.271Z,22.00
2017-12-19T18:24:10.029Z,20.88
2017-12-19T18:26:37.615Z,21.12
2017-12-19T18:29:07.254Z,21.42
2017-12-19T18:31:34.811Z,21.90
2017-12-19T18:34:03.162Z,18.77
2017-12-19T18:36:30.700Z,21.08
2017-12-19T18:38:58.330Z,19.67
2017-12-19T18:41:25.867Z,20.90
2017-12-19T18:43:54.216Z,21.62
2017-12-19T18:46:21.805Z,19.85
2017-12-19T18:48:49.444Z,20.70
2017-12-19T18:51:16.984Z,20.67
2017-12-19T18:53:44.614Z,19.20
2017-12-19T18:56:12.197Z,19.62
2017-12-19T18:58:39.819Z,22.80
2017-12-19T19:01:08.168Z,19.87
2017-12-19T19:03:35.795Z,20.48
2017-12-19T19:06:03.355Z,19.87
2017-12-19T19:08:30.900Z,18.48
2017-12-19T19:10:58.526Z,19.27
2017-12-19T19:13:26.061Z,20.25
2017-12-19T19:15:53.688Z,21.25
2017-12-19T19:18:21.223Z,20.33
2017-12-19T19:20:49.620Z,20.60
2017-12-19T19:23:17.208Z,20.45
2017-12-19T19:25:44.787Z,19.92
2017-12-19T19:28:12.380Z,20.75
2017-12-19T19:30:44.835Z,20.58
2017-12-19T19:33:13.310Z,19.60
2017-12-19T19:35:40.949Z,22.45
2017-12-19T19:38:08.486Z,21.02
2017-12-19T19:40:36.264Z,22.70
2017-12-19T19:43:03.846Z,23.75
2017-12-19T19:45:31.480Z,24.05
2017-12-19T19:47:59.073Z,22.62
2017-12-19T19:50:26.659Z,22.98
2017-12-19T19:52:55.015Z,21.45
2017-12-19T19:55:22.644Z,21.77
2017-12-19T19:57:50.218Z,23.42
2017-12-19T20:00:17.794Z,21.30
2017-12-19T20:02:45.337Z,20.92
2017-12-19T20:05:12.967Z,21.45
2017-12-19T20:07:40.554Z,20.10
2017-12-19T20:10:08.087Z,22.20
2017-12-19T20:12:35.723Z,20.50
2017-12-19T20:15:04.069Z,21.87
2017-12-19T20:17:31.649Z,20.50
2017-12-19T20:19:59.291Z,20.45
2017-12-19T20:22:26.883Z,20.58
2017-12-19T20:24:55.308Z,20.15
2017-12-19T20:27:22.940Z,21.12
2017-12-19T20:29:50.532Z,19.55
2017-12-19T20:32:18.161Z,19.73
2017-12-19T20:34:45.697Z,19.50
2017-12-19T20:37:14.087Z,19.85
2017-12-19T20:39:42.430Z,18.87
2017-12-19T20:42:10.055Z,16.98
2017-12-19T20:44:37.689Z,18.92
2017-12-19T20:47:05.994Z,20.92
2017-12-19T20:49:33.569Z,19.75
2017-12-19T20:52:01.200Z,17.65
2017-12-19T20:54:28.804Z,19.35
2017-12-19T20:56:56.379Z,19.70
2017-12-19T20:59:23.983Z,19.80
2017-12-19T21:01:51.558Z,19.00
2017-12-19T21:04:19.154Z,21.80
2017-12-19T21:06:46.793Z,19.50
2017-12-19T21:09:14.379Z,19.77
2017-12-19T21:11:42.012Z,19.75
2017-12-19T21:14:09.640Z,18.33
2017-12-19T21:16:37.993Z,20.15
2017-12-19T21:19:05.571Z,19.80
2017-12-19T21:21:33.876Z,21.62
2017-12-19T21:24:01.543Z,20.60
2017-12-19T21:26:29.139Z,22.40
2017-12-19T21:28:56.728Z,22.75
2017-12-19T21:31:25.125Z,20.65
2017-12-19T21:33:52.764Z,22.95
2017-12-19T21:36:21.122Z,21.90
2017-12-19T21:38:48.705Z,21.42
2017-12-19T21:41:17.040Z,22.60
2017-12-19T21:43:44.615Z,23.35
2017-12-19T21:46:12.245Z,20.73
2017-12-19T21:51:31.333Z,23.20
2017-12-19T21:53:58.916Z,24.23
2017-12-19T21:56:26.550Z,23.70
2017-12-19T21:58:54.140Z,23.10
2017-12-19T22:01:21.759Z,22.85
2017-12-19T22:03:49.343Z,24.20
2017-12-19T22:06:16.968Z,23.08
2017-12-19T22:08:44.504Z,23.92
2017-12-19T22:11:12.899Z,24.92
2017-12-19T22:13:41.201Z,23.30
2017-12-19T22:16:08.833Z,23.62
2017-12-19T22:18:37.183Z,20.25
2017-12-19T22:21:04.812Z,22.23
2017-12-19T22:23:32.434Z,21.70
2017-12-19T22:26:00.779Z,22.87
2017-12-19T22:28:28.402Z,21.90
2017-12-19T22:30:55.996Z,22.65
2017-12-19T22:33:23.572Z,20.77
2017-12-19T22:35:51.164Z,20.35
2017-12-19T22:38:18.788Z,18.77
2017-12-19T22:40:46.326Z,19.17
2017-12-19T22:43:13.864Z,17.30
2017-12-19T22:45:41.445Z,19.80
2017-12-19T22:48:09.031Z,17.42
2017-12-19T22:50:36.651Z,17.23
2017-12-19T22:53:04.226Z,17.00
2017-12-19T22:55:31.865Z,17.17
2017-12-19T22:57:59.450Z,15.55
2017-12-19T23:00:27.038Z,16.90
2017-12-19T23:02:55.389Z,13.70
2017-12-19T23:05:23.020Z,14.23
2017-12-19T23:07:50.552Z,16.60
2017-12-19T23:10:18.942Z,16.30
2017-12-19T23:12:46.480Z,14.80
2017-12-19T23:15:14.057Z,13.95
2017-12-19T23:17:42.409Z,14.07
2017-12-19T23:20:10.038Z,15.15
2017-12-19T23:22:37.574Z,15.82
2017-12-19T23:25:05.212Z,15.50
2017-12-19T23:27:33.516Z,13.82
2017-12-19T23:30:01.104Z,9.80
2017-12-19T23:32:28.647Z,13.50
2017-12-19T23:34:56.284Z,14.00
2017-12-19T23:37:23.872Z,12.37
2017-12-19T23:39:51.505Z,14.68
2017-12-19T23:42:19.093Z,13.80
2017-12-19T23:44:46.757Z,12.23
2017-12-19T23:47:14.296Z,13.75
2017-12-19T23:49:41.881Z,15.45
2017-12-19T23:52:09.412Z,13.82
2017-12-19T23:54:36.989Z,14.68
2017-12-19T23:57:04.570Z,14.15
2017-12-19T23:59:32.148Z,14.75
